createdAt,value
2017-10-19T00:00:54.610Z,97.07
2017-10-19T00:03:22.171Z,96.91
2017-10-19T00:05:49.637Z,96.68
2017-10-19T00:08:17.140Z,96.45
2017-10-19T00:10:44.601Z,96.58
2017-10-19T00:13:13.380Z,96.11
2017-10-19T00:15:40.859Z,95.71
2017-10-19T00:18:08.321Z,95.24
2017-10-19T00:20:36.785Z,95.17
2017-10-19T00:23:04.257Z,95.39
2017-10-19T00:25:31.741Z,95.43
2017-10-19T00:27:59.203Z,94.80
2017-10-19T00:30:26.758Z,95.33
2017-10-19T00:32:54.228Z,95.08
2017-10-19T00:35:21.696Z,94.98
2017-10-19T00:37:49.168Z,94.84
2017-10-19T00:40:16.703Z,94.85
2017-10-19T00:42:44.168Z,94.95
2017-10-19T00:45:11.666Z,95.06
2017-10-19T00:47:39.130Z,95.11
2017-10-19T00:50:06.613Z,94.93
2017-10-19T00:52:34.095Z,95.16
2017-10-19T00:55:01.560Z,95.49
2017-10-19T00:57:29.037Z,95.50
2017-10-19T00:59:56.517Z,95.02
2017-10-19T01:02:24.007Z,95.23
2017-10-19T01:04:51.478Z,95.54
2017-10-19T01:07:18.986Z,95.57
2017-10-19T01:09:46.459Z,94.74
2017-10-19T01:12:13.946Z,94.62
2017-10-19T01:14:41.449Z,94.79
2017-10-19T01:17:08.901Z,94.77
2017-10-19T01:19:36.365Z,94.81
2017-10-19T01:22:03.918Z,94.51
2017-10-19T01:24:31.404Z,94.42
2017-10-19T01:26:58.862Z,94.39
2017-10-19T01:29:26.519Z,95.03
2017-10-19T01:31:54.088Z,94.90
2017-10-19T01:34:21.560Z,95.05
2017-10-19T01:36:49.068Z,95.17
2017-10-19T01:39:16.560Z,94.87
2017-10-19T01:41:44.080Z,94.79
2017-10-19T01:44:11.589Z,94.71
2017-10-19T01:46:39.073Z,94.56
2017-10-19T01:49:06.545Z,94.51
2017-10-19T01:51:34.039Z,94.33
2017-10-19T01:54:01.524Z,94.32
2017-10-19T01:56:29.045Z,94.30
2017-10-19T01:58:56.534Z,94.60
2017-10-19T02:01:24.266Z,94.82
2017-10-19T02:03:51.733Z,94.50
2017-10-19T02:06:19.220Z,94.25
2017-10-19T02:08:46.680Z,94.03
2017-10-19T02:11:14.143Z,94.05
2017-10-19T02:13:41.625Z,94.06
2017-10-19T02:16:09.105Z,93.78
2017-10-19T02:18:36.613Z,93.73
2017-10-19T02:21:04.103Z,93.68
2017-10-19T02:23:31.618Z,93.81
2017-10-19T02:25:59.083Z,93.69
2017-10-19T02:28:26.577Z,93.37
2017-10-19T02:30:54.692Z,93.14
2017-10-19T02:33:22.168Z,93.80
2017-10-19T02:35:49.661Z,94.10
2017-10-19T02:38:17.139Z,94.03
2017-10-19T02:40:44.628Z,94.21
2017-10-19T02:43:12.135Z,94.17
2017-10-19T02:45:39.594Z,94.33
2017-10-19T02:48:07.412Z,94.24
2017-10-19T02:50:34.918Z,94.09
2017-10-19T02:53:02.418Z,93.95
2017-10-19T02:55:29.920Z,94.36
2017-10-19T02:57:57.422Z,94.71
2017-10-19T03:00:24.917Z,94.57
2017-10-19T03:02:52.386Z,94.21
2017-10-19T03:05:19.873Z,94.41
2017-10-19T03:07:47.334Z,94.33
2017-10-19T03:10:15.198Z,94.36
2017-10-19T03:12:42.714Z,94.78
2017-10-19T03:15:10.250Z,94.49
2017-10-19T03:17:37.734Z,93.73
2017-10-19T03:20:05.207Z,93.68
2017-10-19T03:22:32.668Z,93.94
2017-10-19T03:25:00.138Z,93.49
2017-10-19T03:27:27.619Z,93.64
2017-10-19T03:29:55.120Z,93.70
2017-10-19T03:32:22.589Z,93.59
2017-10-19T03:34:50.074Z,92.57
2017-10-19T03:37:17.540Z,92.16
2017-10-19T03:39:45.045Z,92.18
2017-10-19T03:42:12.538Z,92.40
2017-10-19T03:44:40.017Z,91.77
2017-10-19T03:47:07.470Z,91.91
2017-10-19T03:49:34.963Z,91.88
2017-10-19T03:52:02.432Z,91.39
2017-10-19T03:54:29.902Z,92.03
2017-10-19T03:56:57.403Z,91.99
2017-10-19T03:59:24.870Z,91.94
2017-10-19T04:01:52.349Z,92.18
2017-10-19T04:04:19.855Z,91.84
2017-10-19T04:06:47.328Z,91.95
2017-10-19T04:09:14.776Z,91.91
2017-10-19T04:11:42.255Z,91.65
2017-10-19T04:14:09.767Z,91.07
2017-10-19T04:16:37.252Z,91.00
2017-10-19T04:19:04.739Z,91.02
2017-10-19T04:21:32.206Z,91.26
2017-10-19T04:23:59.698Z,91.63
2017-10-19T04:26:27.185Z,91.54
2017-10-19T04:28:54.750Z,90.94
2017-10-19T04:31:22.233Z,90.96
2017-10-19T04:33:49.704Z,90.69
2017-10-19T04:36:17.662Z,90.89
2017-10-19T04:38:45.134Z,90.57
2017-10-19T04:41:12.626Z,90.82
2017-10-19T04:43:40.089Z,90.88
2017-10-19T04:46:07.553Z,90.82
2017-10-19T04:48:35.038Z,91.07
2017-10-19T04:51:02.502Z,90.98
2017-10-19T04:53:29.981Z,91.00
2017-10-19T04:55:57.473Z,90.99
2017-10-19T04:58:24.962Z,90.94
2017-10-19T05:00:52.433Z,90.49
2017-10-19T05:03:19.911Z,90.96
2017-10-19T05:05:47.377Z,91.22
2017-10-19T05:08:14.856Z,91.51
2017-10-19T05:10:42.345Z,91.55
2017-10-19T05:13:09.816Z,91.72
2017-10-19T05:15:37.289Z,91.58
2017-10-19T05:18:04.835Z,91.49
2017-10-19T05:20:32.297Z,91.33
2017-10-19T05:22:59.757Z,91.11
2017-10-19T05:25:27.244Z,90.78
2017-10-19T05:27:54.732Z,90.69
2017-10-19T05:30:22.184Z,90.78
2017-10-19T05:32:49.725Z,90.07
2017-10-19T05:35:17.206Z,90.10
2017-10-19T05:37:45.553Z,90.04
2017-10-19T05:40:13.049Z,89.95
2017-10-19T05:42:40.531Z,89.43
2017-10-19T05:45:08.021Z,89.02
2017-10-19T05:47:35.499Z,88.99
2017-10-19T05:50:02.976Z,88.91
2017-10-19T05:52:30.444Z,89.18
2017-10-19T05:54:57.915Z,89.81
2017-10-19T05:57:25.388Z,89.83
2017-10-19T05:59:52.866Z,89.24
2017-10-19T06:02:20.377Z,89.08
2017-10-19T06:04:47.849Z,88.71
2017-10-19T06:07:15.323Z,88.16
2017-10-19T06:09:42.827Z,88.43
2017-10-19T06:12:10.296Z,88.26
2017-10-19T06:14:37.759Z,88.25
2017-10-19T06:17:05.281Z,88.44
2017-10-19T06:19:32.743Z,88.60
2017-10-19T06:22:00.255Z,88.44
2017-10-19T06:24:27.766Z,87.77
2017-10-19T06:26:55.241Z,87.57
2017-10-19T06:29:22.730Z,88.19
2017-10-19T06:31:50.232Z,87.60
2017-10-19T06:34:17.703Z,87.17
2017-10-19T06:36:45.180Z,86.70
2017-10-19T06:39:12.662Z,86.20
2017-10-19T06:41:40.168Z,85.70
2017-10-19T06:44:07.621Z,85.37
2017-10-19T06:46:35.102Z,85.50
2017-10-19T06:49:02.561Z,85.82
2017-10-19T06:51:30.953Z,85.56
2017-10-19T06:53:58.438Z,86.17
2017-10-19T06:56:25.893Z,85.85
2017-10-19T06:58:53.568Z,85.18
2017-10-19T07:01:21.586Z,84.34
2017-10-19T07:03:49.589Z,84.15
2017-10-19T07:06:17.520Z,83.26
2017-10-19T07:08:45.459Z,84.34
2017-10-19T07:11:13.428Z,84.19
2017-10-19T07:13:41.392Z,84.12
2017-10-19T07:16:09.375Z,83.78
2017-10-19T07:18:37.418Z,82.78
2017-10-19T07:21:05.341Z,82.78
2017-10-19T07:23:33.651Z,82.77
2017-10-19T07:26:01.645Z,83.01
2017-10-19T07:28:29.629Z,82.39
2017-10-19T07:30:57.651Z,81.82
2017-10-19T07:33:25.603Z,82.39
2017-10-19T07:35:53.530Z,82.40
2017-10-19T07:38:21.514Z,82.36
2017-10-19T07:40:49.462Z,81.76
2017-10-19T07:43:17.391Z,82.04
2017-10-19T07:45:45.356Z,81.46
2017-10-19T07:48:12.816Z,80.87
2017-10-19T07:50:40.268Z,80.64
2017-10-19T07:53:07.745Z,80.41
2017-10-19T07:55:35.223Z,80.17
2017-10-19T07:58:02.689Z,79.39
2017-10-19T08:00:30.200Z,79.27
2017-10-19T08:02:57.659Z,78.89
2017-10-19T08:05:25.119Z,77.50
2017-10-19T08:07:52.602Z,77.61
2017-10-19T08:10:20.066Z,77.19
2017-10-19T08:12:47.545Z,76.58
2017-10-19T08:15:15.031Z,76.23
2017-10-19T08:17:42.515Z,75.19
2017-10-19T08:20:09.978Z,74.23
2017-10-19T08:22:37.466Z,74.55
2017-10-19T08:25:04.963Z,74.70
2017-10-19T08:27:32.427Z,74.46
2017-10-19T08:29:59.958Z,74.22
2017-10-19T08:32:27.415Z,74.50
2017-10-19T08:34:55.080Z,73.91
2017-10-19T08:37:22.563Z,73.76
2017-10-19T08:39:50.042Z,73.72
2017-10-19T08:42:17.506Z,73.23
2017-10-19T08:44:44.988Z,72.68
2017-10-19T08:47:12.553Z,72.85
2017-10-19T08:49:40.024Z,72.74
2017-10-19T08:52:07.512Z,71.41
2017-10-19T08:54:34.996Z,70.86
2017-10-19T08:57:02.454Z,71.42
2017-10-19T08:59:29.943Z,70.60
2017-10-19T09:01:57.409Z,69.67
2017-10-19T09:04:24.949Z,70.08
2017-10-19T09:06:52.430Z,70.48
2017-10-19T09:09:19.889Z,70.59
2017-10-19T09:11:47.370Z,70.12
2017-10-19T09:14:14.882Z,70.35
2017-10-19T09:16:42.353Z,69.81
2017-10-19T09:19:09.836Z,69.08
2017-10-19T09:21:37.361Z,69.09
2017-10-19T09:24:04.852Z,69.18
2017-10-19T09:26:32.352Z,69.55
2017-10-19T09:28:59.817Z,69.31
2017-10-19T09:31:27.286Z,69.32
2017-10-19T09:33:54.758Z,70.34
2017-10-19T09:36:22.240Z,70.50
2017-10-19T09:38:49.723Z,70.54
2017-10-19T09:41:17.202Z,70.59
2017-10-19T09:43:44.673Z,71.60
2017-10-19T09:46:12.145Z,71.51
2017-10-19T09:48:39.635Z,71.63
2017-10-19T09:51:07.137Z,72.13
2017-10-19T09:53:34.647Z,71.48
2017-10-19T09:56:02.129Z,70.21
2017-10-19T09:58:29.628Z,70.31
2017-10-19T10:00:57.112Z,70.27
2017-10-19T10:03:24.586Z,71.79
2017-10-19T10:05:52.100Z,70.86
2017-10-19T10:08:19.589Z,70.51
2017-10-19T10:10:47.063Z,69.31
2017-10-19T10:13:14.561Z,68.82
2017-10-19T10:15:42.039Z,68.95
2017-10-19T10:18:10.017Z,69.00
2017-10-19T10:20:37.545Z,68.70
2017-10-19T10:23:05.033Z,68.92
2017-10-19T10:25:32.509Z,68.59
2017-10-19T10:27:59.981Z,68.16
2017-10-19T10:30:27.474Z,67.38
2017-10-19T10:32:54.981Z,67.00
2017-10-19T10:35:22.487Z,67.06
2017-10-19T10:37:49.964Z,67.75
2017-10-19T10:40:17.421Z,67.70
2017-10-19T10:42:44.900Z,68.10
2017-10-19T10:45:12.367Z,67.89
2017-10-19T10:47:39.834Z,66.80
2017-10-19T10:50:07.328Z,65.57
2017-10-19T10:52:34.790Z,66.51
2017-10-19T10:55:02.261Z,66.47
2017-10-19T10:57:29.739Z,66.64
2017-10-19T10:59:57.274Z,66.55
2017-10-19T11:02:24.791Z,66.43
2017-10-19T11:04:52.293Z,66.60
2017-10-19T11:07:19.796Z,66.14
2017-10-19T11:09:47.311Z,65.98
2017-10-19T11:12:14.828Z,65.54
2017-10-19T11:14:42.316Z,66.43
2017-10-19T11:17:09.863Z,67.29
2017-10-19T11:19:37.961Z,67.54
2017-10-19T11:22:05.492Z,67.37
2017-10-19T11:24:33.006Z,67.80
2017-10-19T11:27:00.489Z,67.95
2017-10-19T11:29:27.998Z,67.86
2017-10-19T11:31:57.121Z,67.77
2017-10-19T11:34:24.586Z,66.68
2017-10-19T11:36:52.045Z,65.65
2017-10-19T11:39:19.537Z,65.43
2017-10-19T11:41:47.015Z,66.44
2017-10-19T11:44:14.486Z,66.66
2017-10-19T11:46:41.971Z,66.14
2017-10-19T11:49:09.461Z,66.69
2017-10-19T11:51:36.940Z,67.04
2017-10-19T11:54:04.411Z,66.56
2017-10-19T11:56:31.865Z,66.45
2017-10-19T11:58:59.363Z,67.49
2017-10-19T12:01:26.866Z,66.85
2017-10-19T12:03:54.356Z,66.46
2017-10-19T12:06:21.838Z,66.40
2017-10-19T12:08:49.310Z,66.24
2017-10-19T12:11:16.793Z,65.09
2017-10-19T12:13:44.256Z,65.54
2017-10-19T12:16:11.748Z,65.70
2017-10-19T12:18:39.239Z,65.49
2017-10-19T12:21:06.722Z,65.27
2017-10-19T12:23:34.211Z,65.46
2017-10-19T12:26:01.672Z,66.30
2017-10-19T12:28:29.150Z,66.45
2017-10-19T12:30:56.642Z,66.67
2017-10-19T12:33:24.543Z,66.80
2017-10-19T12:35:52.012Z,67.00
2017-10-19T12:38:19.543Z,66.86
2017-10-19T12:40:47.023Z,66.35
2017-10-19T12:43:14.560Z,65.87
2017-10-19T12:45:42.059Z,66.72
2017-10-19T12:48:09.529Z,67.79
2017-10-19T12:50:37.617Z,68.01
2017-10-19T12:53:05.347Z,67.41
2017-10-19T12:55:33.071Z,67.80
2017-10-19T12:58:00.790Z,67.99
2017-10-19T13:00:28.562Z,67.82
2017-10-19T13:02:56.295Z,67.73
2017-10-19T13:05:23.969Z,67.46
2017-10-19T13:07:51.579Z,67.62
2017-10-19T13:10:19.277Z,67.29
2017-10-19T13:12:46.805Z,66.94
2017-10-19T13:15:14.354Z,66.24
2017-10-19T13:17:41.916Z,65.59
2017-10-19T13:20:09.663Z,65.98
2017-10-19T13:22:37.236Z,66.16
2017-10-19T13:25:04.713Z,66.43
2017-10-19T13:27:32.173Z,66.44
2017-10-19T13:30:00.132Z,65.58
2017-10-19T13:32:27.712Z,65.15
2017-10-19T13:34:55.216Z,65.11
2017-10-19T13:37:22.706Z,65.13
2017-10-19T13:39:50.183Z,65.32
2017-10-19T13:42:17.650Z,65.09
2017-10-19T13:44:45.118Z,65.64
2017-10-19T13:47:12.587Z,65.77
2017-10-19T13:49:40.090Z,65.76
2017-10-19T13:52:07.562Z,65.03
2017-10-19T13:54:35.031Z,63.08
2017-10-19T13:57:02.547Z,60.62
2017-10-19T13:59:30.067Z,58.69
2017-10-19T14:01:57.533Z,57.42
2017-10-19T14:04:25.028Z,57.28
2017-10-19T14:06:52.494Z,56.37
2017-10-19T14:09:19.961Z,55.08
2017-10-19T14:11:47.450Z,54.95
2017-10-19T14:14:14.968Z,54.85
2017-10-19T14:16:42.436Z,53.77
2017-10-19T14:19:09.911Z,54.14
2017-10-19T14:21:37.436Z,54.06
2017-10-19T14:24:04.910Z,53.88
2017-10-19T14:26:32.478Z,52.42
2017-10-19T14:28:59.957Z,52.08
2017-10-19T14:31:27.425Z,51.67
2017-10-19T14:33:54.945Z,50.90
2017-10-19T14:36:22.525Z,49.46
2017-10-19T14:38:50.051Z,49.18
2017-10-19T14:41:17.577Z,49.02
2017-10-19T14:43:45.104Z,49.03
2017-10-19T14:46:12.643Z,49.51
2017-10-19T14:48:40.175Z,49.22
2017-10-19T14:51:07.697Z,49.44
2017-10-19T14:53:35.157Z,48.94
2017-10-19T14:56:02.668Z,49.55
2017-10-19T14:58:30.141Z,49.48
2017-10-19T15:00:57.630Z,49.87
2017-10-19T15:03:25.142Z,50.31
2017-10-19T15:05:52.619Z,50.71
2017-10-19T15:08:20.088Z,50.91
2017-10-19T15:10:47.582Z,51.17
2017-10-19T15:13:15.065Z,51.58
2017-10-19T15:15:43.803Z,52.06
2017-10-19T15:18:11.337Z,52.82
2017-10-19T15:20:39.594Z,53.61
2017-10-19T15:23:07.080Z,54.31
2017-10-19T15:25:34.827Z,55.00
2017-10-19T15:28:02.409Z,55.83
2017-10-19T15:30:29.936Z,56.76
2017-10-19T15:32:57.430Z,57.66
2017-10-19T15:35:24.944Z,58.76
2017-10-19T15:37:52.462Z,60.07
2017-10-19T15:40:19.961Z,61.86
2017-10-19T15:42:47.561Z,64.27
2017-10-19T15:45:15.446Z,66.08
2017-10-19T15:47:43.159Z,67.80
2017-10-19T15:50:10.929Z,69.04
2017-10-19T15:52:38.450Z,70.79
2017-10-19T15:55:05.965Z,72.43
2017-10-19T15:57:33.467Z,73.37
2017-10-19T16:00:01.058Z,74.24
2017-10-19T16:02:28.557Z,75.39
2017-10-19T16:04:56.085Z,76.20
2017-10-19T16:07:23.604Z,77.24
2017-10-19T16:09:51.102Z,77.98
2017-10-19T16:12:18.675Z,78.79
2017-10-19T16:14:46.261Z,79.91
2017-10-19T16:17:13.783Z,81.16
2017-10-19T16:19:41.309Z,81.66
2017-10-19T16:22:08.804Z,82.12
2017-10-19T16:24:36.339Z,82.60
2017-10-19T16:27:03.857Z,83.63
2017-10-19T16:29:31.379Z,83.65
2017-10-19T16:31:58.909Z,84.19
2017-10-19T16:34:26.402Z,84.85
2017-10-19T16:36:53.945Z,85.43
2017-10-19T16:39:21.505Z,85.64
2017-10-19T16:41:49.037Z,85.93
2017-10-19T16:44:16.539Z,86.05
2017-10-19T16:46:44.092Z,86.79
2017-10-19T16:49:11.671Z,87.20
2017-10-19T16:51:39.213Z,87.26
2017-10-19T16:54:06.721Z,87.56
2017-10-19T16:56:34.255Z,87.60
2017-10-19T16:59:01.786Z,87.65
2017-10-19T17:01:29.743Z,87.95
2017-10-19T17:03:57.252Z,87.78
2017-10-19T17:06:24.822Z,88.17
2017-10-19T17:08:52.310Z,88.61
2017-10-19T17:11:19.780Z,88.67
2017-10-19T17:13:47.264Z,88.84
2017-10-19T17:16:14.785Z,88.62
2017-10-19T17:18:42.299Z,88.72
2017-10-19T17:21:09.793Z,89.05
2017-10-19T17:23:37.328Z,89.34
2017-10-19T17:26:04.787Z,89.40
2017-10-19T17:28:32.265Z,89.63
2017-10-19T17:30:59.771Z,89.97
2017-10-19T17:33:27.242Z,90.29
2017-10-19T17:35:54.763Z,90.56
2017-10-19T17:38:22.275Z,90.48
2017-10-19T17:40:49.758Z,91.20
2017-10-19T17:43:17.280Z,91.29
2017-10-19T17:45:44.794Z,91.18
2017-10-19T17:48:12.252Z,91.31
2017-10-19T17:50:40.544Z,91.34
2017-10-19T17:53:08.077Z,91.88
2017-10-19T17:55:35.589Z,92.64
2017-10-19T17:58:03.122Z,92.70
2017-10-19T18:00:30.644Z,92.85
2017-10-19T18:02:58.112Z,92.16
2017-10-19T18:05:25.639Z,91.70
2017-10-19T18:07:53.209Z,90.85
2017-10-19T18:10:20.753Z,90.39
2017-10-19T18:12:48.272Z,90.66
2017-10-19T18:15:15.848Z,90.85
2017-10-19T18:17:43.366Z,91.16
2017-10-19T18:20:10.838Z,91.99
2017-10-19T18:22:38.351Z,92.09
2017-10-19T18:25:05.865Z,92.29
2017-10-19T18:27:33.382Z,92.50
2017-10-19T18:30:00.896Z,92.32
2017-10-19T18:32:28.367Z,92.39
2017-10-19T18:34:55.868Z,92.68
2017-10-19T18:37:23.380Z,93.16
2017-10-19T18:39:50.886Z,93.42
2017-10-19T18:42:18.415Z,93.78
2017-10-19T18:44:46.012Z,93.86
2017-10-19T18:47:13.504Z,93.88
2017-10-19T18:49:41.001Z,93.92
2017-10-19T18:52:08.538Z,93.78
2017-10-19T18:54:36.050Z,93.97
2017-10-19T18:57:03.519Z,93.96
2017-10-19T18:59:31.039Z,94.10
2017-10-19T19:01:58.511Z,94.30
2017-10-19T19:04:26.030Z,94.82
2017-10-19T19:06:53.533Z,94.99
2017-10-19T19:09:21.421Z,95.10
2017-10-19T19:11:48.931Z,95.26
2017-10-19T19:14:16.423Z,95.29
2017-10-19T19:16:43.918Z,95.38
2017-10-19T19:19:11.387Z,95.36
2017-10-19T19:21:38.893Z,95.23
2017-10-19T19:24:06.385Z,94.98
2017-10-19T19:26:33.882Z,95.20
2017-10-19T19:29:01.664Z,95.35
2017-10-19T19:31:29.140Z,95.16
2017-10-19T19:33:56.637Z,95.31
2017-10-19T19:36:24.179Z,95.43
2017-10-19T19:38:51.669Z,95.50
2017-10-19T19:41:19.756Z,95.15
2017-10-19T19:43:47.295Z,95.03
2017-10-19T19:46:14.798Z,94.87
2017-10-19T19:48:42.332Z,94.90
2017-10-19T19:51:09.844Z,94.87
2017-10-19T19:53:37.332Z,94.79
2017-10-19T19:56:04.838Z,94.97
2017-10-19T19:58:32.386Z,94.69
2017-10-19T20:00:59.875Z,94.59
2017-10-19T20:03:27.388Z,94.26
2017-10-19T20:05:54.897Z,94.25
2017-10-19T20:08:22.408Z,94.08
2017-10-19T20:10:49.895Z,94.32
2017-10-19T20:13:17.394Z,94.66
2017-10-19T20:15:44.911Z,94.60
2017-10-19T20:18:12.399Z,94.73
2017-10-19T20:20:39.904Z,94.70
2017-10-19T20:23:07.393Z,94.42
2017-10-19T20:25:34.983Z,94.61
2017-10-19T20:28:02.478Z,94.29
2017-10-19T20:30:29.961Z,94.33
2017-10-19T20:32:57.442Z,94.75
2017-10-19T20:35:24.926Z,95.24
2017-10-19T20:37:52.412Z,95.49
2017-10-19T20:40:19.886Z,95.79
2017-10-19T20:42:47.383Z,95.73
2017-10-19T20:45:14.934Z,95.48
2017-10-19T20:47:42.432Z,95.44
2017-10-19T20:50:09.931Z,95.54
2017-10-19T20:52:37.533Z,95.49
2017-10-19T20:55:05.014Z,95.66
2017-10-19T20:57:32.502Z,95.97
2017-10-19T21:00:00.028Z,96.23
2017-10-19T21:02:28.259Z,95.92
2017-10-19T21:04:55.809Z,95.76
2017-10-19T21:07:23.270Z,95.90
2017-10-19T21:09:50.739Z,96.01
2017-10-19T21:12:18.272Z,96.09
2017-10-19T21:14:45.751Z,96.13
2017-10-19T21:17:13.276Z,96.28
2017-10-19T21:19:40.782Z,96.48
2017-10-19T21:22:08.309Z,96.64
2017-10-19T21:24:35.808Z,96.70
2017-10-19T21:27:03.902Z,96.80
2017-10-19T21:29:31.398Z,96.86
2017-10-19T21:31:59.118Z,96.91
2017-10-19T21:34:26.677Z,96.96
2017-10-19T21:36:54.345Z,97.14
2017-10-19T21:39:21.885Z,97.31
2017-10-19T21:41:49.407Z,97.25
2017-10-19T21:44:16.983Z,97.15
2017-10-19T21:46:44.529Z,97.08
2017-10-19T21:49:12.534Z,96.91
2017-10-19T21:51:41.139Z,96.89
2017-10-19T21:54:08.787Z,96.86
2017-10-19T21:56:36.528Z,96.76
2017-10-19T21:59:04.095Z,96.72
2017-10-19T22:04:03.700Z,96.68
2017-10-19T22:06:31.251Z,96.69
2017-10-19T22:08:58.776Z,96.53
2017-10-19T22:11:26.382Z,96.36
2017-10-19T22:13:54.361Z,96.22
2017-10-19T22:16:22.125Z,96.07
2017-10-19T22:18:49.950Z,95.96
2017-10-19T22:21:17.748Z,95.91
2017-10-19T22:23:45.256Z,95.83
2017-10-19T22:26:12.847Z,95.86
2017-10-19T22:28:40.328Z,96.00
2017-10-19T22:31:07.862Z,96.15
2017-10-19T22:33:35.359Z,96.27
2017-10-19T22:36:02.821Z,96.30
2017-10-19T22:41:03.403Z,96.45
2017-10-19T22:43:31.154Z,96.44
2017-10-19T22:45:58.614Z,96.46
2017-10-19T22:48:26.106Z,96.47
2017-10-19T22:50:53.647Z,96.60
2017-10-19T22:53:21.140Z,96.78
2017-10-19T22:55:48.989Z,96.90
2017-10-19T22:58:21.539Z,97.02
2017-10-19T23:00:49.061Z,97.10
2017-10-19T23:03:16.529Z,97.18
2017-10-19T23:05:44.035Z,97.29
2017-10-19T23:08:11.518Z,97.33
2017-10-19T23:10:39.022Z,97.35
2017-10-19T23:13:06.498Z,97.38
2017-10-19T23:15:33.983Z,97.41
2017-10-19T23:18:01.520Z,97.50
2017-10-19T23:20:31.869Z,97.47
2017-10-19T23:22:59.393Z,97.41
2017-10-19T23:25:26.893Z,97.44
2017-10-19T23:27:54.362Z,97.40
2017-10-19T23:30:21.878Z,97.54
2017-10-19T23:32:49.369Z,97.61
2017-10-19T23:35:16.845Z,97.65
2017-10-19T23:37:44.352Z,97.65
2017-10-19T23:40:11.826Z,97.64
2017-10-19T23:42:39.808Z,97.58
2017-10-19T23:45:07.338Z,97.58
2017-10-19T23:47:34.826Z,97.59
2017-10-19T23:50:02.296Z,97.56
2017-10-19T23:52:29.886Z,97.43
2017-10-19T23:54:57.356Z,97.54
2017-10-19T23:57:26.703Z,97.59
2017-10-19T23:59:54.207Z,97.67
